Página principal
METAR-TAF:

METAR-TAF

Aeroportos :

Reykjavík, Islândia

Aeroporto de Reykjavík

latitude: 64-08N, longitude: 021-54W, altura: 54 m

Observação actual do tempo

O boletim foi feito há 53 minutos, às 23:00 UTC
Vento 3 kt de este
Temperatura 10°C
Humidade 66%
Pressão 1012 hPa
Visibilidade 10 km ou mais
sem nuvens abaixo de 1500 metros e sem cumulonimbus

METAR: BIRK 182300Z 09003KT CAVOK 10/04 Q1012

Hora: 23:53 (23:53 UTC)

Previsão

O boletim foi feito há 1 hora e 11 minutos, às 22:42 UTC
Previsão válida de 19 às 00 UTC a 19 às 24 UTC
Vento 5 kt de nordeste
Visibilidade 10 km ou mais
Poucas nuvensa uma altura de 3500 ft
Tornando-se
de 19 às 12 UTC a 19 às 15 UTC
Vento 15 kt de norte

TAF: BIRK 182242Z 1900/1924 05005KT 9999 FEW035 TX15/1915Z TN06/1905Z BECMG 1912/1915 01015KT

Observações e previsões do tempo de mais de 4000 aeroportos (mensagens METAR e TAF).

As estações disponíveis são os pontos amarelos e vermelhos sobre o mapa.

Mova o rato sobre o mapa para ver o nome da estação.

Depois clique no ponto para visualizar as observações e previsões meteorológicas.

Para alterar o mapa : clique nos botões verdes com uma cruz preta para aumentar o zoom; no botão verde com uma pitada de zoom; ou nas setas verdes para mapas adjacentes.


METAR-TAF: